sensor_id;sensor_type;location;lat;lon;timestamp;P1;durP1;ratioP1;P2;durP2;ratioP2
18334;SDS011;9293;49.524;10.964;2022-08-21T00:01:51;13.23;;;8.50;;
18334;SDS011;9293;49.524;10.964;2022-08-21T00:04:21;11.57;;;7.50;;
18334;SDS011;9293;49.524;10.964;2022-08-21T00:06:55;9.38;;;7.40;;
18334;SDS011;9293;49.524;10.964;2022-08-21T00:09:24;10.27;;;7.57;;
18334;SDS011;9293;49.524;10.964;2022-08-21T00:11:52;13.00;;;8.43;;
18334;SDS011;9293;49.524;10.964;2022-08-21T00:14:20;7.18;;;6.47;;
18334;SDS011;9293;49.524;10.964;2022-08-21T00:16:48;11.45;;;7.88;;
18334;SDS011;9293;49.524;10.964;2022-08-21T00:19:17;12.90;;;8.00;;
18334;SDS011;9293;49.524;10.964;2022-08-21T00:21:46;9.52;;;8.15;;
18334;SDS011;9293;49.524;10.964;2022-08-21T00:24:15;8.75;;;7.50;;
18334;SDS011;9293;49.524;10.964;2022-08-21T00:26:43;8.90;;;7.47;;
18334;SDS011;9293;49.524;10.964;2022-08-21T00:29:11;10.45;;;7.70;;
18334;SDS011;9293;49.524;10.964;2022-08-21T00:31:40;10.77;;;7.45;;
18334;SDS011;9293;49.524;10.964;2022-08-21T00:34:10;11.23;;;7.75;;
18334;SDS011;9293;49.524;10.964;2022-08-21T00:36:39;9.48;;;7.25;;
18334;SDS011;9293;49.524;10.964;2022-08-21T00:39:07;9.35;;;7.57;;
18334;SDS011;9293;49.524;10.964;2022-08-21T00:41:37;12.07;;;9.13;;
18334;SDS011;9293;49.524;10.964;2022-08-21T00:44:07;8.43;;;7.63;;
18334;SDS011;9293;49.524;10.964;2022-08-21T00:46:37;9.23;;;8.03;;
18334;SDS011;9293;49.524;10.964;2022-08-21T00:49:06;12.45;;;8.55;;
18334;SDS011;9293;49.524;10.964;2022-08-21T00:51:42;11.00;;;8.38;;
18334;SDS011;9293;49.524;10.964;2022-08-21T00:54:21;9.93;;;7.93;;
18334;SDS011;9293;49.524;10.964;2022-08-21T00:56:54;8.25;;;7.30;;
18334;SDS011;9293;49.524;10.964;2022-08-21T00:59:27;9.63;;;8.15;;
18334;SDS011;9293;49.524;10.964;2022-08-21T01:01:57;9.88;;;7.90;;
18334;SDS011;9293;49.524;10.964;2022-08-21T01:04:25;10.15;;;8.43;;
18334;SDS011;9293;49.524;10.964;2022-08-21T01:06:53;8.85;;;7.38;;
18334;SDS011;9293;49.524;10.964;2022-08-21T01:09:22;7.88;;;7.03;;
18334;SDS011;9293;49.524;10.964;2022-08-21T01:11:50;10.25;;;8.43;;
18334;SDS011;9293;49.524;10.964;2022-08-21T01:14:19;9.25;;;8.23;;
18334;SDS011;9293;49.524;10.964;2022-08-21T01:16:48;13.00;;;7.32;;
18334;SDS011;9293;49.524;10.964;2022-08-21T01:19:19;8.80;;;7.45;;
18334;SDS011;9293;49.524;10.964;2022-08-21T01:21:48;9.43;;;7.68;;
18334;SDS011;9293;49.524;10.964;2022-08-21T01:24:17;9.63;;;8.60;;
18334;SDS011;9293;49.524;10.964;2022-08-21T01:26:45;9.88;;;8.57;;
18334;SDS011;9293;49.524;10.964;2022-08-21T01:32:14;13.25;;;8.55;;
18334;SDS011;9293;49.524;10.964;2022-08-21T01:34:45;11.32;;;7.60;;
18334;SDS011;9293;49.524;10.964;2022-08-21T01:37:15;8.50;;;7.60;;
18334;SDS011;9293;49.524;10.964;2022-08-21T01:39:44;10.57;;;7.05;;
18334;SDS011;9293;49.524;10.964;2022-08-21T01:42:13;8.80;;;7.30;;
18334;SDS011;9293;49.524;10.964;2022-08-21T01:44:41;10.88;;;7.68;;
18334;SDS011;9293;49.524;10.964;2022-08-21T01:47:11;8.35;;;7.45;;
18334;SDS011;9293;49.524;10.964;2022-08-21T01:49:43;9.43;;;6.78;;
18334;SDS011;9293;49.524;10.964;2022-08-21T01:52:12;7.20;;;6.30;;
18334;SDS011;9293;49.524;10.964;2022-08-21T01:54:40;7.72;;;6.57;;
18334;SDS011;9293;49.524;10.964;2022-08-21T01:57:10;10.63;;;7.03;;
18334;SDS011;9293;49.524;10.964;2022-08-21T01:59:39;6.85;;;6.00;;
18334;SDS011;9293;49.524;10.964;2022-08-21T02:02:08;8.30;;;7.00;;
18334;SDS011;9293;49.524;10.964;2022-08-21T02:04:37;10.95;;;6.07;;
18334;SDS011;9293;49.524;10.964;2022-08-21T02:07:06;9.07;;;7.20;;
18334;SDS011;9293;49.524;10.964;2022-08-21T02:09:35;7.78;;;6.97;;
18334;SDS011;9293;49.524;10.964;2022-08-21T02:12:05;10.65;;;6.28;;
18334;SDS011;9293;49.524;10.964;2022-08-21T02:14:33;6.45;;;5.78;;
18334;SDS011;9293;49.524;10.964;2022-08-21T02:17:02;6.55;;;5.85;;
18334;SDS011;9293;49.524;10.964;2022-08-21T02:19:35;9.57;;;7.35;;
18334;SDS011;9293;49.524;10.964;2022-08-21T02:22:09;8.77;;;6.95;;
18334;SDS011;9293;49.524;10.964;2022-08-21T02:24:38;7.75;;;6.90;;
18334;SDS011;9293;49.524;10.964;2022-08-21T02:27:20;8.40;;;7.07;;
18334;SDS011;9293;49.524;10.964;2022-08-21T02:29:53;8.30;;;7.28;;
18334;SDS011;9293;49.524;10.964;2022-08-21T02:32:23;8.02;;;7.10;;
18334;SDS011;9293;49.524;10.964;2022-08-21T02:34:52;9.38;;;8.27;;
18334;SDS011;9293;49.524;10.964;2022-08-21T02:37:21;9.27;;;7.72;;
18334;SDS011;9293;49.524;10.964;2022-08-21T02:39:50;10.70;;;8.93;;
18334;SDS011;9293;49.524;10.964;2022-08-21T02:42:18;11.52;;;9.23;;
18334;SDS011;9293;49.524;10.964;2022-08-21T02:44:47;9.32;;;8.32;;
18334;SDS011;9293;49.524;10.964;2022-08-21T02:47:16;13.23;;;10.23;;
18334;SDS011;9293;49.524;10.964;2022-08-21T02:49:44;13.48;;;10.30;;
18334;SDS011;9293;49.524;10.964;2022-08-21T02:52:12;19.98;;;11.52;;
18334;SDS011;9293;49.524;10.964;2022-08-21T02:54:41;13.40;;;11.45;;
18334;SDS011;9293;49.524;10.964;2022-08-21T02:57:09;12.38;;;10.40;;
18334;SDS011;9293;49.524;10.964;2022-08-21T02:59:38;11.52;;;10.20;;
18334;SDS011;9293;49.524;10.964;2022-08-21T03:02:06;11.77;;;9.07;;
18334;SDS011;9293;49.524;10.964;2022-08-21T03:04:34;8.73;;;7.82;;
18334;SDS011;9293;49.524;10.964;2022-08-21T03:07:03;10.07;;;8.68;;
18334;SDS011;9293;49.524;10.964;2022-08-21T03:09:36;9.93;;;8.93;;
18334;SDS011;9293;49.524;10.964;2022-08-21T03:12:20;12.77;;;10.57;;
18334;SDS011;9293;49.524;10.964;2022-08-21T03:14:49;11.60;;;10.40;;
18334;SDS011;9293;49.524;10.964;2022-08-21T03:17:17;11.10;;;9.93;;
18334;SDS011;9293;49.524;10.964;2022-08-21T03:19:55;10.52;;;9.43;;
18334;SDS011;9293;49.524;10.964;2022-08-21T03:22:24;16.13;;;11.70;;
18334;SDS011;9293;49.524;10.964;2022-08-21T03:24:55;20.05;;;11.27;;
18334;SDS011;9293;49.524;10.964;2022-08-21T03:27:24;12.57;;;9.82;;
18334;SDS011;9293;49.524;10.964;2022-08-21T03:29:56;15.82;;;10.18;;
18334;SDS011;9293;49.524;10.964;2022-08-21T03:32:24;16.60;;;11.32;;
18334;SDS011;9293;49.524;10.964;2022-08-21T03:34:53;11.65;;;9.70;;
18334;SDS011;9293;49.524;10.964;2022-08-21T03:37:21;11.35;;;9.55;;
18334;SDS011;9293;49.524;10.964;2022-08-21T03:39:49;16.75;;;9.82;;
18334;SDS011;9293;49.524;10.964;2022-08-21T03:42:18;41.35;;;10.52;;
18334;SDS011;9293;49.524;10.964;2022-08-21T03:44:46;42.92;;;11.40;;
18334;SDS011;9293;49.524;10.964;2022-08-21T03:47:17;62.08;;;11.18;;
18334;SDS011;9293;49.524;10.964;2022-08-21T03:49:45;53.17;;;11.38;;
18334;SDS011;9293;49.524;10.964;2022-08-21T03:52:14;75.32;;;10.70;;
18334;SDS011;9293;49.524;10.964;2022-08-21T03:54:44;107.15;;;11.90;;
18334;SDS011;9293;49.524;10.964;2022-08-21T03:57:13;42.03;;;11.60;;
18334;SDS011;9293;49.524;10.964;2022-08-21T03:59:41;43.60;;;11.05;;
18334;SDS011;9293;49.524;10.964;2022-08-21T04:02:10;83.25;;;14.32;;
18334;SDS011;9293;49.524;10.964;2022-08-21T04:04:41;105.70;;;16.13;;
18334;SDS011;9293;49.524;10.964;2022-08-21T04:07:09;93.40;;;14.13;;
18334;SDS011;9293;49.524;10.964;2022-08-21T04:09:37;49.88;;;11.40;;
18334;SDS011;9293;49.524;10.964;2022-08-21T04:12:06;73.60;;;12.00;;
18334;SDS011;9293;49.524;10.964;2022-08-21T04:14:34;78.88;;;11.35;;
18334;SDS011;9293;49.524;10.964;2022-08-21T04:17:02;62.72;;;11.35;;
18334;SDS011;9293;49.524;10.964;2022-08-21T04:19:30;95.90;;;12.15;;
18334;SDS011;9293;49.524;10.964;2022-08-21T04:21:58;50.78;;;10.75;;
18334;SDS011;9293;49.524;10.964;2022-08-21T04:24:27;86.18;;;11.13;;
18334;SDS011;9293;49.524;10.964;2022-08-21T04:26:56;74.35;;;10.23;;
18334;SDS011;9293;49.524;10.964;2022-08-21T04:29:24;52.03;;;10.93;;
18334;SDS011;9293;49.524;10.964;2022-08-21T04:31:52;41.35;;;11.00;;
18334;SDS011;9293;49.524;10.964;2022-08-21T04:34:20;70.13;;;13.40;;
18334;SDS011;9293;49.524;10.964;2022-08-21T04:36:48;58.22;;;11.60;;
18334;SDS011;9293;49.524;10.964;2022-08-21T04:39:16;98.25;;;14.63;;
18334;SDS011;9293;49.524;10.964;2022-08-21T04:41:44;56.67;;;15.30;;
18334;SDS011;9293;49.524;10.964;2022-08-21T04:44:12;85.75;;;13.70;;
18334;SDS011;9293;49.524;10.964;2022-08-21T04:46:40;78.95;;;11.98;;
18334;SDS011;9293;49.524;10.964;2022-08-21T04:49:09;126.32;;;17.38;;
18334;SDS011;9293;49.524;10.964;2022-08-21T04:51:37;230.63;;;18.25;;
18334;SDS011;9293;49.524;10.964;2022-08-21T04:54:19;123.55;;;14.25;;
18334;SDS011;9293;49.524;10.964;2022-08-21T04:56:51;39.03;;;10.23;;
18334;SDS011;9293;49.524;10.964;2022-08-21T04:59:36;135.57;;;15.32;;
18334;SDS011;9293;49.524;10.964;2022-08-21T05:02:08;67.53;;;11.90;;
18334;SDS011;9293;49.524;10.964;2022-08-21T05:04:38;62.67;;;13.63;;
18334;SDS011;9293;49.524;10.964;2022-08-21T05:07:12;44.60;;;12.02;;
18334;SDS011;9293;49.524;10.964;2022-08-21T05:10:04;32.15;;;11.50;;
18334;SDS011;9293;49.524;10.964;2022-08-21T05:12:48;23.45;;;11.40;;
18334;SDS011;9293;49.524;10.964;2022-08-21T05:15:16;42.58;;;12.70;;
18334;SDS011;9293;49.524;10.964;2022-08-21T05:17:45;79.78;;;14.52;;
18334;SDS011;9293;49.524;10.964;2022-08-21T05:20:27;28.25;;;13.02;;
18334;SDS011;9293;49.524;10.964;2022-08-21T05:22:55;52.50;;;14.30;;
18334;SDS011;9293;49.524;10.964;2022-08-21T05:25:25;55.80;;;16.95;;
18334;SDS011;9293;49.524;10.964;2022-08-21T05:27:55;55.67;;;13.65;;
18334;SDS011;9293;49.524;10.964;2022-08-21T05:30:26;39.72;;;15.13;;
18334;SDS011;9293;49.524;10.964;2022-08-21T05:32:57;32.30;;;14.20;;
18334;SDS011;9293;49.524;10.964;2022-08-21T05:35:27;41.20;;;13.82;;
18334;SDS011;9293;49.524;10.964;2022-08-21T05:37:56;21.15;;;12.85;;
18334;SDS011;9293;49.524;10.964;2022-08-21T05:40:25;38.88;;;14.93;;
18334;SDS011;9293;49.524;10.964;2022-08-21T05:42:54;26.55;;;15.18;;
18334;SDS011;9293;49.524;10.964;2022-08-21T05:45:25;34.60;;;13.95;;
18334;SDS011;9293;49.524;10.964;2022-08-21T05:50:39;36.53;;;14.43;;
18334;SDS011;9293;49.524;10.964;2022-08-21T05:53:08;26.48;;;12.52;;
18334;SDS011;9293;49.524;10.964;2022-08-21T05:55:37;27.42;;;12.32;;
18334;SDS011;9293;49.524;10.964;2022-08-21T05:58:15;30.23;;;11.85;;
18334;SDS011;9293;49.524;10.964;2022-08-21T06:00:46;23.55;;;11.38;;
18334;SDS011;9293;49.524;10.964;2022-08-21T06:03:20;132.33;;;18.53;;
18334;SDS011;9293;49.524;10.964;2022-08-21T06:05:51;107.53;;;17.38;;
18334;SDS011;9293;49.524;10.964;2022-08-21T06:08:20;18.30;;;12.77;;
18334;SDS011;9293;49.524;10.964;2022-08-21T06:10:49;27.75;;;13.55;;
18334;SDS011;9293;49.524;10.964;2022-08-21T06:13:19;14.55;;;12.70;;
18334;SDS011;9293;49.524;10.964;2022-08-21T06:15:49;40.00;;;14.75;;
18334;SDS011;9293;49.524;10.964;2022-08-21T06:18:17;49.10;;;12.88;;
18334;SDS011;9293;49.524;10.964;2022-08-21T06:20:45;89.75;;;15.80;;
18334;SDS011;9293;49.524;10.964;2022-08-21T06:23:13;30.75;;;14.65;;
18334;SDS011;9293;49.524;10.964;2022-08-21T06:25:41;21.83;;;12.43;;
18334;SDS011;9293;49.524;10.964;2022-08-21T06:28:10;12.32;;;10.63;;
18334;SDS011;9293;49.524;10.964;2022-08-21T06:30:38;23.80;;;11.07;;
18334;SDS011;9293;49.524;10.964;2022-08-21T06:33:07;17.25;;;11.80;;
18334;SDS011;9293;49.524;10.964;2022-08-21T06:35:36;22.02;;;11.68;;
18334;SDS011;9293;49.524;10.964;2022-08-21T06:38:07;22.02;;;12.80;;
18334;SDS011;9293;49.524;10.964;2022-08-21T06:40:36;13.18;;;11.55;;
18334;SDS011;9293;49.524;10.964;2022-08-21T06:43:13;20.05;;;11.93;;
18334;SDS011;9293;49.524;10.964;2022-08-21T06:45:45;22.45;;;12.73;;
18334;SDS011;9293;49.524;10.964;2022-08-21T06:48:13;20.38;;;12.40;;
18334;SDS011;9293;49.524;10.964;2022-08-21T06:50:45;13.75;;;12.32;;
18334;SDS011;9293;49.524;10.964;2022-08-21T06:53:14;21.10;;;13.48;;
18334;SDS011;9293;49.524;10.964;2022-08-21T06:55:44;15.65;;;12.25;;
18334;SDS011;9293;49.524;10.964;2022-08-21T06:58:13;13.35;;;11.93;;
18334;SDS011;9293;49.524;10.964;2022-08-21T07:00:43;13.60;;;11.63;;
18334;SDS011;9293;49.524;10.964;2022-08-21T07:03:17;18.63;;;12.13;;
18334;SDS011;9293;49.524;10.964;2022-08-21T07:05:49;29.77;;;19.17;;
18334;SDS011;9293;49.524;10.964;2022-08-21T07:08:17;14.73;;;13.07;;
18334;SDS011;9293;49.524;10.964;2022-08-21T07:10:46;19.55;;;12.90;;
18334;SDS011;9293;49.524;10.964;2022-08-21T07:13:15;18.20;;;13.93;;
18334;SDS011;9293;49.524;10.964;2022-08-21T07:15:44;16.55;;;13.23;;
18334;SDS011;9293;49.524;10.964;2022-08-21T07:18:12;17.17;;;13.90;;
18334;SDS011;9293;49.524;10.964;2022-08-21T07:20:41;22.60;;;14.20;;
18334;SDS011;9293;49.524;10.964;2022-08-21T07:25:56;19.70;;;15.88;;
18334;SDS011;9293;49.524;10.964;2022-08-21T07:28:24;14.68;;;13.18;;
18334;SDS011;9293;49.524;10.964;2022-08-21T07:30:58;18.10;;;14.20;;
18334;SDS011;9293;49.524;10.964;2022-08-21T07:33:31;13.80;;;12.23;;
18334;SDS011;9293;49.524;10.964;2022-08-21T07:36:01;18.13;;;13.30;;
18334;SDS011;9293;49.524;10.964;2022-08-21T07:38:30;15.82;;;14.18;;
18334;SDS011;9293;49.524;10.964;2022-08-21T07:40:59;14.05;;;12.55;;
18334;SDS011;9293;49.524;10.964;2022-08-21T07:43:28;14.82;;;12.85;;
18334;SDS011;9293;49.524;10.964;2022-08-21T07:45:57;13.05;;;11.82;;
18334;SDS011;9293;49.524;10.964;2022-08-21T07:48:25;13.55;;;12.18;;
18334;SDS011;9293;49.524;10.964;2022-08-21T07:50:53;14.95;;;13.45;;
18334;SDS011;9293;49.524;10.964;2022-08-21T07:53:22;16.95;;;13.57;;
18334;SDS011;9293;49.524;10.964;2022-08-21T07:55:50;13.60;;;12.20;;
18334;SDS011;9293;49.524;10.964;2022-08-21T07:58:18;13.93;;;12.52;;
18334;SDS011;9293;49.524;10.964;2022-08-21T08:00:46;12.63;;;11.30;;
18334;SDS011;9293;49.524;10.964;2022-08-21T08:03:14;13.20;;;11.90;;
18334;SDS011;9293;49.524;10.964;2022-08-21T08:05:54;14.38;;;12.90;;
18334;SDS011;9293;49.524;10.964;2022-08-21T08:08:23;16.00;;;14.35;;
18334;SDS011;9293;49.524;10.964;2022-08-21T08:10:52;15.30;;;13.48;;
18334;SDS011;9293;49.524;10.964;2022-08-21T08:13:21;14.02;;;12.63;;
18334;SDS011;9293;49.524;10.964;2022-08-21T08:15:49;13.65;;;12.23;;
18334;SDS011;9293;49.524;10.964;2022-08-21T08:18:18;13.98;;;12.52;;
18334;SDS011;9293;49.524;10.964;2022-08-21T08:20:46;14.27;;;12.85;;
18334;SDS011;9293;49.524;10.964;2022-08-21T08:23:15;13.60;;;12.30;;
18334;SDS011;9293;49.524;10.964;2022-08-21T08:25:43;13.95;;;12.20;;
18334;SDS011;9293;49.524;10.964;2022-08-21T08:28:12;14.57;;;13.07;;
18334;SDS011;9293;49.524;10.964;2022-08-21T08:30:44;14.35;;;12.93;;
18334;SDS011;9293;49.524;10.964;2022-08-21T08:33:14;14.98;;;11.75;;
18334;SDS011;9293;49.524;10.964;2022-08-21T08:35:44;13.02;;;11.73;;
18334;SDS011;9293;49.524;10.964;2022-08-21T08:38:15;13.85;;;12.48;;
18334;SDS011;9293;49.524;10.964;2022-08-21T08:43:50;14.10;;;12.70;;
18334;SDS011;9293;49.524;10.964;2022-08-21T08:46:35;14.80;;;13.13;;
18334;SDS011;9293;49.524;10.964;2022-08-21T08:52:02;12.63;;;11.40;;
18334;SDS011;9293;49.524;10.964;2022-08-21T08:54:48;12.80;;;11.48;;
18334;SDS011;9293;49.524;10.964;2022-08-21T08:57:27;12.80;;;11.60;;
18334;SDS011;9293;49.524;10.964;2022-08-21T08:59:56;13.60;;;12.23;;
18334;SDS011;9293;49.524;10.964;2022-08-21T09:02:27;12.55;;;11.35;;
18334;SDS011;9293;49.524;10.964;2022-08-21T09:04:56;11.95;;;10.50;;
18334;SDS011;9293;49.524;10.964;2022-08-21T09:10:22;13.35;;;11.98;;
18334;SDS011;9293;49.524;10.964;2022-08-21T09:13:10;11.73;;;10.63;;
18334;SDS011;9293;49.524;10.964;2022-08-21T09:22:07;12.75;;;11.55;;
18334;SDS011;9293;49.524;10.964;2022-08-21T09:25:29;12.07;;;10.90;;
18334;SDS011;9293;49.524;10.964;2022-08-21T09:27:39;11.73;;;10.68;;
18334;SDS011;9293;49.524;10.964;2022-08-21T09:30:07;13.35;;;11.95;;
18334;SDS011;9293;49.524;10.964;2022-08-21T09:32:37;12.98;;;11.60;;
18334;SDS011;9293;49.524;10.964;2022-08-21T09:38:01;11.85;;;10.63;;
18334;SDS011;9293;49.524;10.964;2022-08-21T09:45:40;11.05;;;9.95;;
18334;SDS011;9293;49.524;10.964;2022-08-21T09:48:21;12.05;;;10.13;;
18334;SDS011;9293;49.524;10.964;2022-08-21T09:50:53;11.43;;;10.40;;
18334;SDS011;9293;49.524;10.964;2022-08-21T09:53:32;11.95;;;10.85;;
18334;SDS011;9293;49.524;10.964;2022-08-21T09:56:02;11.77;;;10.68;;
18334;SDS011;9293;49.524;10.964;2022-08-21T10:01:23;11.70;;;10.60;;
18334;SDS011;9293;49.524;10.964;2022-08-21T10:04:07;11.57;;;10.50;;
18334;SDS011;9293;49.524;10.964;2022-08-21T10:06:39;10.25;;;9.18;;
18334;SDS011;9293;49.524;10.964;2022-08-21T10:09:09;11.07;;;10.07;;
18334;SDS011;9293;49.524;10.964;2022-08-21T10:11:52;10.85;;;9.95;;
18334;SDS011;9293;49.524;10.964;2022-08-21T10:14:45;10.27;;;9.27;;
18334;SDS011;9293;49.524;10.964;2022-08-21T10:20:52;9.73;;;8.38;;
18334;SDS011;9293;49.524;10.964;2022-08-21T10:23:59;11.00;;;9.35;;
18334;SDS011;9293;49.524;10.964;2022-08-21T10:29:58;9.07;;;8.18;;
18334;SDS011;9293;49.524;10.964;2022-08-21T10:35:59;9.40;;;8.50;;
18334;SDS011;9293;49.524;10.964;2022-08-21T10:45:02;8.52;;;7.72;;
18334;SDS011;9293;49.524;10.964;2022-08-21T10:47:43;8.48;;;7.70;;
18334;SDS011;9293;49.524;10.964;2022-08-21T10:50:29;8.48;;;7.68;;
18334;SDS011;9293;49.524;10.964;2022-08-21T10:56:02;8.32;;;7.53;;
18334;SDS011;9293;49.524;10.964;2022-08-21T11:01:31;8.35;;;7.55;;
18334;SDS011;9293;49.524;10.964;2022-08-21T11:04:16;7.88;;;7.18;;
18334;SDS011;9293;49.524;10.964;2022-08-21T11:07:22;9.15;;;7.82;;
18334;SDS011;9293;49.524;10.964;2022-08-21T11:10:05;10.13;;;9.18;;
18334;SDS011;9293;49.524;10.964;2022-08-21T11:12:42;9.50;;;7.70;;
18334;SDS011;9293;49.524;10.964;2022-08-21T11:15:26;8.15;;;6.38;;
18334;SDS011;9293;49.524;10.964;2022-08-21T11:21:35;9.80;;;8.90;;
18334;SDS011;9293;49.524;10.964;2022-08-21T11:24:24;8.10;;;7.40;;
18334;SDS011;9293;49.524;10.964;2022-08-21T11:27:01;7.90;;;7.20;;
18334;SDS011;9293;49.524;10.964;2022-08-21T11:29:35;4.68;;;4.28;;
18334;SDS011;9293;49.524;10.964;2022-08-21T11:46:28;5.05;;;4.07;;
18334;SDS011;9293;49.524;10.964;2022-08-21T11:56:44;4.65;;;4.20;;
18334;SDS011;9293;49.524;10.964;2022-08-21T12:02:28;4.38;;;3.90;;
18334;SDS011;9293;49.524;10.964;2022-08-21T12:05:05;3.67;;;3.10;;
18334;SDS011;9293;49.524;10.964;2022-08-21T12:07:38;3.85;;;3.40;;
18334;SDS011;9293;49.524;10.964;2022-08-21T12:10:10;4.88;;;4.20;;
18334;SDS011;9293;49.524;10.964;2022-08-21T12:12:44;4.93;;;4.45;;
18334;SDS011;9293;49.524;10.964;2022-08-21T12:17:54;4.25;;;3.85;;
18334;SDS011;9293;49.524;10.964;2022-08-21T12:23:44;3.88;;;3.47;;
18334;SDS011;9293;49.524;10.964;2022-08-21T12:26:26;4.03;;;3.63;;
18334;SDS011;9293;49.524;10.964;2022-08-21T12:29:11;4.00;;;3.45;;
18334;SDS011;9293;49.524;10.964;2022-08-21T12:31:51;3.67;;;3.35;;
18334;SDS011;9293;49.524;10.964;2022-08-21T12:34:23;3.50;;;2.92;;
18334;SDS011;9293;49.524;10.964;2022-08-21T12:37:06;3.88;;;3.58;;
18334;SDS011;9293;49.524;10.964;2022-08-21T12:39:46;3.88;;;2.92;;
18334;SDS011;9293;49.524;10.964;2022-08-21T12:42:24;3.05;;;2.85;;
18334;SDS011;9293;49.524;10.964;2022-08-21T12:44:56;5.28;;;3.08;;
18334;SDS011;9293;49.524;10.964;2022-08-21T12:47:31;2.80;;;2.60;;
18334;SDS011;9293;49.524;10.964;2022-08-21T12:50:08;4.00;;;3.17;;
18334;SDS011;9293;49.524;10.964;2022-08-21T12:52:41;3.83;;;3.42;;
18334;SDS011;9293;49.524;10.964;2022-08-21T12:55:26;4.03;;;3.70;;
18334;SDS011;9293;49.524;10.964;2022-08-21T12:57:57;3.08;;;2.78;;
18334;SDS011;9293;49.524;10.964;2022-08-21T13:00:27;3.60;;;3.30;;
18334;SDS011;9293;49.524;10.964;2022-08-21T13:05:29;4.80;;;3.10;;
18334;SDS011;9293;49.524;10.964;2022-08-21T13:07:59;3.45;;;3.15;;
18334;SDS011;9293;49.524;10.964;2022-08-21T13:10:32;3.60;;;3.30;;
18334;SDS011;9293;49.524;10.964;2022-08-21T13:13:03;3.60;;;3.30;;
18334;SDS011;9293;49.524;10.964;2022-08-21T13:15:38;3.80;;;3.42;;
18334;SDS011;9293;49.524;10.964;2022-08-21T13:18:24;3.60;;;3.30;;
18334;SDS011;9293;49.524;10.964;2022-08-21T13:23:34;4.55;;;3.83;;
18334;SDS011;9293;49.524;10.964;2022-08-21T13:26:11;4.15;;;3.55;;
18334;SDS011;9293;49.524;10.964;2022-08-21T13:28:48;3.92;;;3.30;;
18334;SDS011;9293;49.524;10.964;2022-08-21T13:31:24;6.43;;;3.15;;
18334;SDS011;9293;49.524;10.964;2022-08-21T13:33:56;4.90;;;3.90;;
18334;SDS011;9293;49.524;10.964;2022-08-21T13:36:29;3.28;;;2.97;;
18334;SDS011;9293;49.524;10.964;2022-08-21T13:39:04;4.45;;;3.10;;
18334;SDS011;9293;49.524;10.964;2022-08-21T13:41:35;2.97;;;2.78;;
18334;SDS011;9293;49.524;10.964;2022-08-21T13:44:14;4.55;;;3.40;;
18334;SDS011;9293;49.524;10.964;2022-08-21T13:46:46;4.10;;;3.70;;
18334;SDS011;9293;49.524;10.964;2022-08-21T13:49:18;5.25;;;3.47;;
18334;SDS011;9293;49.524;10.964;2022-08-21T13:51:49;5.90;;;2.88;;
18334;SDS011;9293;49.524;10.964;2022-08-21T13:54:29;4.10;;;2.80;;
18334;SDS011;9293;49.524;10.964;2022-08-21T13:57:15;6.15;;;2.85;;
18334;SDS011;9293;49.524;10.964;2022-08-21T13:59:45;3.25;;;2.95;;
18334;SDS011;9293;49.524;10.964;2022-08-21T14:07:20;3.10;;;2.80;;
18334;SDS011;9293;49.524;10.964;2022-08-21T14:09:59;2.85;;;2.55;;
18334;SDS011;9293;49.524;10.964;2022-08-21T14:12:38;4.18;;;3.10;;
18334;SDS011;9293;49.524;10.964;2022-08-21T14:15:28;4.13;;;2.83;;
18334;SDS011;9293;49.524;10.964;2022-08-21T14:18:09;4.10;;;3.53;;
18334;SDS011;9293;49.524;10.964;2022-08-21T14:20:42;3.78;;;3.22;;
18334;SDS011;9293;49.524;10.964;2022-08-21T14:23:10;3.38;;;3.08;;
18334;SDS011;9293;49.524;10.964;2022-08-21T14:25:42;3.45;;;3.15;;
18334;SDS011;9293;49.524;10.964;2022-08-21T14:28:31;3.05;;;2.70;;
18334;SDS011;9293;49.524;10.964;2022-08-21T14:31:12;5.20;;;2.85;;
18334;SDS011;9293;49.524;10.964;2022-08-21T14:33:48;5.72;;;2.83;;
18334;SDS011;9293;49.524;10.964;2022-08-21T14:36:16;3.72;;;2.78;;
18334;SDS011;9293;49.524;10.964;2022-08-21T14:38:47;3.30;;;3.00;;
18334;SDS011;9293;49.524;10.964;2022-08-21T14:41:20;3.95;;;3.17;;
18334;SDS011;9293;49.524;10.964;2022-08-21T14:43:51;3.42;;;3.13;;
18334;SDS011;9293;49.524;10.964;2022-08-21T14:46:33;2.67;;;2.38;;
18334;SDS011;9293;49.524;10.964;2022-08-21T14:49:22;2.72;;;2.47;;
18334;SDS011;9293;49.524;10.964;2022-08-21T14:54:28;4.10;;;2.85;;
18334;SDS011;9293;49.524;10.964;2022-08-21T14:57:04;3.97;;;2.72;;
18334;SDS011;9293;49.524;10.964;2022-08-21T14:59:35;2.90;;;2.25;;
18334;SDS011;9293;49.524;10.964;2022-08-21T15:02:05;2.88;;;2.63;;
18334;SDS011;9293;49.524;10.964;2022-08-21T15:04:34;3.00;;;2.60;;
18334;SDS011;9293;49.524;10.964;2022-08-21T15:07:02;3.45;;;2.85;;
18334;SDS011;9293;49.524;10.964;2022-08-21T15:09:31;4.13;;;2.45;;
18334;SDS011;9293;49.524;10.964;2022-08-21T15:11:59;3.05;;;2.58;;
18334;SDS011;9293;49.524;10.964;2022-08-21T15:14:32;4.13;;;2.67;;
18334;SDS011;9293;49.524;10.964;2022-08-21T15:17:02;4.03;;;2.40;;
18334;SDS011;9293;49.524;10.964;2022-08-21T15:19:33;3.10;;;2.60;;
18334;SDS011;9293;49.524;10.964;2022-08-21T15:22:01;2.40;;;2.20;;
18334;SDS011;9293;49.524;10.964;2022-08-21T15:24:30;3.22;;;2.25;;
18334;SDS011;9293;49.524;10.964;2022-08-21T15:26:59;2.60;;;2.40;;
18334;SDS011;9293;49.524;10.964;2022-08-21T15:29:30;2.85;;;2.50;;
18334;SDS011;9293;49.524;10.964;2022-08-21T15:32:00;2.75;;;2.55;;
18334;SDS011;9293;49.524;10.964;2022-08-21T15:34:43;4.00;;;2.40;;
18334;SDS011;9293;49.524;10.964;2022-08-21T15:37:11;4.70;;;2.60;;
18334;SDS011;9293;49.524;10.964;2022-08-21T15:39:47;3.13;;;2.25;;
18334;SDS011;9293;49.524;10.964;2022-08-21T15:42:23;2.90;;;2.60;;
18334;SDS011;9293;49.524;10.964;2022-08-21T15:47:34;2.58;;;2.15;;
18334;SDS011;9293;49.524;10.964;2022-08-21T15:50:11;3.38;;;2.20;;
18334;SDS011;9293;49.524;10.964;2022-08-21T15:52:43;2.63;;;2.10;;
18334;SDS011;9293;49.524;10.964;2022-08-21T15:55:17;3.30;;;2.30;;
18334;SDS011;9293;49.524;10.964;2022-08-21T15:57:47;5.57;;;2.38;;
18334;SDS011;9293;49.524;10.964;2022-08-21T16:00:24;2.42;;;1.75;;
18334;SDS011;9293;49.524;10.964;2022-08-21T16:02:55;3.88;;;2.05;;
18334;SDS011;9293;49.524;10.964;2022-08-21T16:05:28;4.45;;;2.20;;
18334;SDS011;9293;49.524;10.964;2022-08-21T16:08:05;5.55;;;2.78;;
18334;SDS011;9293;49.524;10.964;2022-08-21T16:10:34;3.85;;;2.47;;
18334;SDS011;9293;49.524;10.964;2022-08-21T16:13:07;2.65;;;2.10;;
18334;SDS011;9293;49.524;10.964;2022-08-21T16:16:19;2.70;;;2.25;;
18334;SDS011;9293;49.524;10.964;2022-08-21T16:18:50;4.82;;;2.13;;
18334;SDS011;9293;49.524;10.964;2022-08-21T16:21:20;3.40;;;2.42;;
18334;SDS011;9293;49.524;10.964;2022-08-21T16:24:02;5.68;;;2.20;;
18334;SDS011;9293;49.524;10.964;2022-08-21T16:26:36;3.70;;;2.20;;
18334;SDS011;9293;49.524;10.964;2022-08-21T16:29:05;4.15;;;2.30;;
18334;SDS011;9293;49.524;10.964;2022-08-21T16:31:35;6.00;;;3.22;;
18334;SDS011;9293;49.524;10.964;2022-08-21T16:34:10;4.80;;;3.13;;
18334;SDS011;9293;49.524;10.964;2022-08-21T16:37:29;3.25;;;1.90;;
18334;SDS011;9293;49.524;10.964;2022-08-21T16:39:58;4.07;;;2.60;;
18334;SDS011;9293;49.524;10.964;2022-08-21T16:42:28;5.40;;;3.45;;
18334;SDS011;9293;49.524;10.964;2022-08-21T16:44:56;5.05;;;2.60;;
18334;SDS011;9293;49.524;10.964;2022-08-21T16:47:36;6.25;;;3.22;;
18334;SDS011;9293;49.524;10.964;2022-08-21T16:50:05;4.30;;;2.88;;
18334;SDS011;9293;49.524;10.964;2022-08-21T16:52:38;3.38;;;2.65;;
18334;SDS011;9293;49.524;10.964;2022-08-21T16:55:08;4.55;;;2.95;;